createdAt,value
2018-01-08T00:00:14.782Z,0.00
2018-01-08T00:01:14.760Z,0.00
2018-01-08T00:02:14.817Z,0.00
2018-01-08T00:03:14.794Z,0.00
2018-01-08T00:04:14.751Z,0.00
2018-01-08T00:05:14.719Z,0.00
2018-01-08T00:06:14.731Z,0.00
2018-01-08T00:07:14.713Z,0.00
2018-01-08T00:08:14.695Z,0.00
2018-01-08T00:09:14.674Z,0.00
2018-01-08T00:10:14.613Z,0.00
2018-01-08T00:11:14.531Z,0.00
2018-01-08T00:12:14.541Z,0.00
2018-01-08T00:13:14.518Z,0.00
2018-01-08T00:14:14.495Z,0.00
2018-01-08T00:15:14.484Z,0.00
2018-01-08T00:16:14.426Z,0.00
2018-01-08T00:17:14.401Z,0.00
2018-01-08T00:18:14.421Z,0.00
2018-01-08T00:19:14.396Z,0.00
2018-01-08T00:20:14.344Z,0.00
2018-01-08T00:21:14.318Z,0.00
2018-01-08T00:22:14.335Z,0.00
2018-01-08T00:23:14.311Z,0.00
2018-01-08T00:24:14.258Z,0.00
2018-01-08T00:25:14.273Z,0.00
2018-01-08T00:26:14.232Z,0.00
2018-01-08T00:27:14.201Z,0.00
2018-01-08T00:28:14.176Z,0.00
2018-01-08T00:29:14.191Z,0.00
2018-01-08T00:30:14.153Z,0.00
2018-01-08T00:31:14.153Z,0.00
2018-01-08T00:32:14.128Z,0.00
2018-01-08T00:33:14.112Z,0.00
2018-01-08T00:34:14.052Z,0.00
2018-01-08T00:35:14.053Z,0.00
2018-01-08T00:36:14.012Z,0.00
2018-01-08T00:37:14.027Z,0.00
2018-01-08T00:38:13.973Z,0.00
2018-01-08T00:39:13.963Z,0.00
2018-01-08T00:40:13.930Z,0.00
2018-01-08T00:41:13.928Z,0.00
2018-01-08T00:42:13.925Z,0.00
2018-01-08T00:43:13.904Z,0.00
2018-01-08T00:44:13.850Z,0.00
2018-01-08T00:45:13.844Z,0.00
2018-01-08T00:46:13.839Z,0.00
2018-01-08T00:47:13.792Z,0.00
2018-01-08T00:48:13.767Z,0.00
2018-01-08T00:49:13.767Z,0.00
2018-01-08T00:50:13.761Z,0.00
2018-01-08T00:51:13.707Z,0.00
2018-01-08T00:52:13.692Z,0.00
2018-01-08T00:53:13.664Z,0.00
2018-01-08T00:54:13.667Z,0.00
2018-01-08T00:55:13.623Z,0.00
2018-01-08T00:56:13.606Z,0.00
2018-01-08T00:57:13.587Z,0.00
2018-01-08T00:58:13.569Z,0.00
2018-01-08T00:59:13.543Z,0.00
2018-01-08T01:00:13.559Z,0.00
2018-01-08T01:01:13.509Z,0.00
2018-01-08T01:02:13.513Z,0.00
2018-01-08T01:03:13.493Z,0.00
2018-01-08T01:04:13.443Z,0.00
2018-01-08T01:05:13.453Z,0.00
2018-01-08T01:06:13.407Z,0.00
2018-01-08T01:07:13.415Z,0.00
2018-01-08T01:08:13.395Z,0.00
2018-01-08T01:09:13.420Z,0.00
2018-01-08T01:10:13.350Z,0.00
2018-01-08T01:11:13.318Z,0.00
2018-01-08T01:12:13.310Z,0.00
2018-01-08T01:13:13.291Z,0.00
2018-01-08T01:14:13.282Z,0.00
2018-01-08T01:15:13.248Z,0.00
2018-01-08T01:16:13.197Z,0.00
2018-01-08T01:17:13.180Z,0.00
2018-01-08T01:18:13.189Z,0.00
2018-01-08T01:19:13.137Z,0.00
2018-01-08T01:20:13.118Z,0.00
2018-01-08T01:21:13.102Z,0.00
2018-01-08T01:22:13.077Z,0.00
2018-01-08T01:23:13.059Z,0.00
2018-01-08T01:24:13.034Z,0.00
2018-01-08T01:25:13.013Z,0.00
2018-01-08T01:26:12.990Z,0.00
2018-01-08T01:27:12.970Z,0.00
2018-01-08T01:28:12.950Z,0.00
2018-01-08T01:29:12.934Z,0.00
2018-01-08T01:30:12.949Z,0.00
2018-01-08T01:31:12.895Z,0.00
2018-01-08T01:32:12.867Z,0.00
2018-01-08T01:33:12.847Z,0.00
2018-01-08T01:34:12.859Z,0.00
2018-01-08T01:35:12.845Z,0.00
2018-01-08T01:36:12.792Z,0.00
2018-01-08T01:37:12.779Z,0.00
2018-01-08T01:38:12.779Z,0.00
2018-01-08T01:39:12.725Z,0.00
2018-01-08T01:40:12.700Z,0.00
2018-01-08T01:41:12.687Z,0.00
2018-01-08T01:42:12.661Z,0.00
2018-01-08T01:43:12.639Z,0.00
2018-01-08T01:44:12.622Z,0.00
2018-01-08T01:45:12.633Z,0.00
2018-01-08T01:46:12.580Z,0.00
2018-01-08T01:47:12.570Z,0.00
2018-01-08T01:48:12.537Z,0.00
2018-01-08T01:49:12.515Z,0.00
2018-01-08T01:50:12.528Z,0.00
2018-01-08T01:51:12.472Z,0.00
2018-01-08T01:52:12.484Z,0.00
2018-01-08T01:53:12.464Z,0.00
2018-01-08T01:54:12.417Z,0.00
2018-01-08T01:55:12.421Z,0.00
2018-01-08T01:56:12.403Z,0.00
2018-01-08T01:57:12.384Z,0.00
2018-01-08T01:58:12.330Z,0.00
2018-01-08T01:59:12.304Z,0.00
2018-01-08T02:00:12.288Z,0.00
2018-01-08T02:01:12.292Z,0.00
2018-01-08T02:02:12.250Z,0.00
2018-01-08T02:03:12.260Z,0.00
2018-01-08T02:04:12.211Z,0.00
2018-01-08T02:05:12.215Z,0.00
2018-01-08T02:06:12.174Z,0.00
2018-01-08T02:07:12.180Z,0.00
2018-01-08T02:08:12.120Z,0.00
2018-01-08T02:09:12.104Z,0.00
2018-01-08T02:10:12.117Z,0.00
2018-01-08T02:11:12.093Z,0.00
2018-01-08T02:12:12.041Z,0.00
2018-01-08T02:13:12.056Z,0.00
2018-01-08T02:14:12.000Z,0.00
2018-01-08T02:15:12.002Z,0.00
2018-01-08T02:16:11.974Z,0.00
2018-01-08T02:17:11.948Z,0.00
2018-01-08T02:18:11.929Z,0.00
2018-01-08T02:19:11.893Z,0.00
2018-01-08T02:20:11.876Z,0.00
2018-01-08T02:21:11.871Z,0.00
2018-01-08T02:22:11.853Z,0.00
2018-01-08T02:23:11.832Z,0.00
2018-01-08T02:24:11.809Z,0.00
2018-01-08T02:25:11.771Z,0.00
2018-01-08T02:26:11.750Z,0.00
2018-01-08T02:27:11.734Z,0.00
2018-01-08T02:28:11.707Z,0.00
2018-01-08T02:29:11.705Z,0.00
2018-01-08T02:30:12.208Z,0.00
2018-01-08T02:31:11.645Z,0.00
2018-01-08T02:32:11.629Z,0.00
2018-01-08T02:33:11.612Z,0.00
2018-01-08T02:34:11.625Z,0.00
2018-01-08T02:35:11.599Z,0.00
2018-01-08T02:36:11.581Z,0.00
2018-01-08T02:37:11.543Z,0.00
2018-01-08T02:38:11.538Z,0.00
2018-01-08T02:39:11.489Z,0.00
2018-01-08T02:40:11.496Z,0.00
2018-01-08T02:41:11.452Z,0.00
2018-01-08T02:42:11.422Z,0.00
2018-01-08T02:43:11.424Z,0.00
2018-01-08T02:44:11.401Z,0.00
2018-01-08T02:45:11.357Z,0.00
2018-01-08T02:46:11.351Z,0.00
2018-01-08T02:47:11.360Z,0.00
2018-01-08T02:48:11.328Z,0.00
2018-01-08T02:49:11.279Z,0.00
2018-01-08T02:50:11.268Z,0.00
2018-01-08T02:51:11.233Z,0.00
2018-01-08T02:52:11.251Z,0.00
2018-01-08T02:53:11.195Z,0.00
2018-01-08T02:54:11.206Z,0.00
2018-01-08T02:55:11.191Z,0.00
2018-01-08T02:56:11.162Z,0.00
2018-01-08T02:57:11.105Z,0.00
2018-01-08T02:58:11.088Z,0.00
2018-01-08T02:59:11.105Z,0.00
2018-01-08T03:00:11.048Z,0.00
2018-01-08T03:01:11.028Z,0.00
2018-01-08T03:02:11.041Z,0.00
2018-01-08T03:03:11.021Z,0.00
2018-01-08T03:04:10.969Z,0.00
2018-01-08T03:05:10.962Z,0.00
2018-01-08T03:06:10.943Z,0.00
2018-01-08T03:07:10.938Z,0.00
2018-01-08T03:08:10.917Z,0.00
2018-01-08T03:09:10.882Z,0.00
2018-01-08T03:10:10.841Z,0.00
2018-01-08T03:11:10.854Z,0.00
2018-01-08T03:12:10.809Z,0.00
2018-01-08T03:13:10.818Z,0.00
2018-01-08T03:14:10.795Z,0.00
2018-01-08T03:15:10.760Z,0.00
2018-01-08T03:16:10.737Z,0.00
2018-01-08T03:17:10.706Z,0.00
2018-01-08T03:18:10.697Z,0.00
2018-01-08T03:19:10.658Z,0.00
2018-01-08T03:20:10.676Z,0.00
2018-01-08T03:21:10.621Z,0.00
2018-01-08T03:22:10.599Z,0.00
2018-01-08T03:23:10.579Z,0.00
2018-01-08T03:24:10.592Z,0.00
2018-01-08T03:25:10.570Z,0.00
2018-01-08T03:26:10.545Z,0.00
2018-01-08T03:27:10.495Z,0.00
2018-01-08T03:28:10.495Z,0.00
2018-01-08T03:29:10.457Z,0.00
2018-01-08T03:30:10.467Z,0.00
2018-01-08T03:31:10.412Z,0.00
2018-01-08T03:32:10.422Z,0.00
2018-01-08T03:33:10.424Z,0.00
2018-01-08T03:34:10.347Z,0.00
2018-01-08T03:35:10.344Z,0.00
2018-01-08T03:36:10.312Z,0.00
2018-01-08T03:37:10.298Z,0.00
2018-01-08T03:38:10.307Z,0.00
2018-01-08T03:39:10.243Z,0.00
2018-01-08T03:40:10.244Z,0.00
2018-01-08T03:41:10.201Z,0.00
2018-01-08T03:42:10.220Z,0.00
2018-01-08T03:43:10.160Z,0.00
2018-01-08T03:44:10.144Z,0.00
2018-01-08T03:45:10.159Z,0.00
2018-01-08T03:46:10.100Z,0.00
2018-01-08T03:47:10.098Z,0.00
2018-01-08T03:48:10.064Z,0.00
2018-01-08T03:49:10.040Z,0.00
2018-01-08T03:50:10.054Z,0.00
2018-01-08T03:51:09.998Z,0.00
2018-01-08T03:52:09.977Z,0.00
2018-01-08T03:53:09.962Z,0.00
2018-01-08T03:54:09.968Z,0.00
2018-01-08T03:55:09.914Z,0.00
2018-01-08T03:56:09.896Z,0.00
2018-01-08T03:57:09.914Z,0.00
2018-01-08T03:58:09.857Z,0.00
2018-01-08T03:59:09.833Z,0.00
2018-01-08T04:00:09.846Z,0.00
2018-01-08T04:01:09.811Z,0.00
2018-01-08T04:02:09.782Z,0.00
2018-01-08T04:03:09.753Z,0.00
2018-01-08T04:04:09.771Z,0.00
2018-01-08T04:05:09.709Z,0.00
2018-01-08T04:06:09.722Z,0.00
2018-01-08T04:07:09.689Z,0.00
2018-01-08T04:08:09.684Z,0.00
2018-01-08T04:09:09.661Z,0.00
2018-01-08T04:10:09.643Z,0.00
2018-01-08T04:11:09.586Z,0.00
2018-01-08T04:12:09.566Z,0.00
2018-01-08T04:13:09.586Z,0.00
2018-01-08T04:14:09.556Z,0.00
2018-01-08T04:15:09.535Z,0.00
2018-01-08T04:16:09.523Z,0.00
2018-01-08T04:17:09.483Z,0.00
2018-01-08T04:18:09.475Z,0.00
2018-01-08T04:19:09.425Z,0.00
2018-01-08T04:20:09.438Z,0.00
2018-01-08T04:21:09.391Z,0.00
2018-01-08T04:22:09.392Z,0.00
2018-01-08T04:23:09.359Z,0.00
2018-01-08T04:24:09.340Z,0.00
2018-01-08T04:25:09.301Z,0.00
2018-01-08T04:26:09.315Z,0.00
2018-01-08T04:27:09.293Z,0.00
2018-01-08T04:28:09.273Z,0.00
2018-01-08T04:29:09.237Z,0.00
2018-01-08T04:30:09.194Z,0.00
2018-01-08T04:31:09.190Z,0.00
2018-01-08T04:32:09.168Z,0.00
2018-01-08T04:33:09.138Z,0.00
2018-01-08T04:34:09.128Z,0.00
2018-01-08T04:35:09.094Z,0.00
2018-01-08T04:36:09.085Z,0.00
2018-01-08T04:37:09.069Z,0.00
2018-01-08T04:38:09.035Z,0.00
2018-01-08T04:39:09.010Z,0.00
2018-01-08T04:40:08.988Z,0.00
2018-01-08T04:41:09.004Z,0.00
2018-01-08T04:42:08.946Z,0.00
2018-01-08T04:43:08.929Z,0.00
2018-01-08T04:44:08.927Z,0.00
2018-01-08T04:45:08.887Z,0.00
2018-01-08T04:46:08.863Z,0.00
2018-01-08T04:47:08.875Z,0.00
2018-01-08T04:48:08.860Z,0.00
2018-01-08T04:49:08.806Z,0.00
2018-01-08T04:50:08.801Z,0.00
2018-01-08T04:51:08.796Z,0.00
2018-01-08T04:52:08.748Z,0.00
2018-01-08T04:53:08.716Z,0.00
2018-01-08T04:54:08.718Z,0.00
2018-01-08T04:55:08.733Z,0.00
2018-01-08T04:56:08.690Z,0.00
2018-01-08T04:57:08.655Z,0.00
2018-01-08T04:58:08.650Z,0.00
2018-01-08T04:59:08.602Z,0.00
2018-01-08T05:00:08.576Z,0.00
2018-01-08T05:01:08.558Z,0.00
2018-01-08T05:02:08.539Z,0.00
2018-01-08T05:03:08.548Z,0.00
2018-01-08T05:04:08.492Z,0.00
2018-01-08T05:05:08.519Z,0.00
2018-01-08T05:06:08.466Z,0.00
2018-01-08T05:07:08.470Z,0.00
2018-01-08T05:08:08.444Z,0.00
2018-01-08T05:09:08.422Z,0.00
2018-01-08T05:10:08.383Z,0.00
2018-01-08T05:11:08.350Z,0.00
2018-01-08T05:12:08.331Z,0.00
2018-01-08T05:13:08.307Z,0.00
2018-01-08T05:14:08.285Z,0.00
2018-01-08T05:15:08.285Z,0.00
2018-01-08T05:16:08.264Z,0.00
2018-01-08T05:17:08.227Z,0.00
2018-01-08T05:18:08.206Z,0.00
2018-01-08T05:19:08.185Z,0.00
2018-01-08T05:20:08.196Z,0.00
2018-01-08T05:21:08.141Z,0.00
2018-01-08T05:22:08.155Z,0.00
2018-01-08T05:23:08.103Z,0.00
2018-01-08T05:24:08.104Z,0.00
2018-01-08T05:25:08.062Z,0.00
2018-01-08T05:26:08.040Z,0.00
2018-01-08T05:27:08.021Z,0.00
2018-01-08T05:28:08.035Z,0.00
2018-01-08T05:29:07.982Z,0.00
2018-01-08T05:30:07.974Z,0.00
2018-01-08T05:31:07.973Z,0.00
2018-01-08T05:32:07.953Z,0.00
2018-01-08T05:33:07.900Z,0.00
2018-01-08T05:34:07.913Z,0.00
2018-01-08T05:35:07.859Z,0.00
2018-01-08T05:36:07.872Z,0.00
2018-01-08T05:37:08.188Z,0.00
2018-01-08T05:38:07.797Z,0.00
2018-01-08T05:39:07.807Z,0.00
2018-01-08T05:40:07.769Z,0.00
2018-01-08T05:41:07.740Z,0.00
2018-01-08T05:42:07.747Z,0.00
2018-01-08T05:43:08.266Z,0.00
2018-01-08T05:44:07.707Z,0.00
2018-01-08T05:45:07.665Z,0.00
2018-01-08T05:46:07.632Z,0.00
2018-01-08T05:47:07.646Z,0.00
2018-01-08T05:48:07.629Z,0.00
2018-01-08T05:49:07.572Z,0.00
2018-01-08T05:50:07.555Z,0.00
2018-01-08T05:51:07.564Z,0.00
2018-01-08T05:52:07.509Z,0.00
2018-01-08T05:53:07.519Z,0.00
2018-01-08T05:54:07.500Z,0.00
2018-01-08T05:55:07.481Z,0.00
2018-01-08T05:56:07.426Z,0.00
2018-01-08T05:57:07.445Z,0.00
2018-01-08T05:58:07.384Z,0.00
2018-01-08T05:59:07.366Z,0.00
2018-01-08T06:00:07.364Z,0.00
2018-01-08T06:01:07.349Z,0.00
2018-01-08T06:02:07.321Z,0.00
2018-01-08T06:03:07.285Z,0.00
2018-01-08T06:04:07.280Z,0.00
2018-01-08T06:05:07.261Z,0.00
2018-01-08T06:06:07.213Z,0.00
2018-01-08T06:07:07.218Z,0.00
2018-01-08T06:08:07.195Z,0.00
2018-01-08T06:09:07.192Z,0.00
2018-01-08T06:10:07.145Z,0.00
2018-01-08T06:11:07.148Z,0.00
2018-01-08T06:12:07.128Z,0.00
2018-01-08T06:13:07.092Z,0.00
2018-01-08T06:14:07.075Z,0.00
2018-01-08T06:15:07.031Z,0.00
2018-01-08T06:16:07.047Z,0.00
2018-01-08T06:17:06.990Z,0.00
2018-01-08T06:18:06.980Z,0.00
2018-01-08T06:19:06.984Z,0.00
2018-01-08T06:20:06.972Z,0.00
2018-01-08T06:21:06.932Z,0.00
2018-01-08T06:22:06.929Z,0.00
2018-01-08T06:23:06.889Z,0.00
2018-01-08T06:24:06.852Z,0.00
2018-01-08T06:25:06.861Z,0.00
2018-01-08T06:26:06.843Z,0.00
2018-01-08T06:27:06.789Z,0.00
2018-01-08T06:28:06.767Z,0.00
2018-01-08T06:29:06.750Z,0.00
2018-01-08T06:30:06.762Z,0.00
2018-01-08T06:31:06.712Z,0.00
2018-01-08T06:32:06.685Z,0.00
2018-01-08T06:33:06.683Z,0.00
2018-01-08T06:34:06.645Z,0.00
2018-01-08T06:35:06.658Z,0.00
2018-01-08T06:36:06.602Z,0.00
2018-01-08T06:37:06.582Z,0.00
2018-01-08T06:38:06.596Z,0.00
2018-01-08T06:39:06.556Z,0.00
2018-01-08T06:40:06.536Z,0.00
2018-01-08T06:41:06.523Z,0.00
2018-01-08T06:42:06.493Z,0.00
2018-01-08T06:43:06.482Z,0.00
2018-01-08T06:44:06.442Z,0.00
2018-01-08T06:45:06.418Z,0.00
2018-01-08T06:46:06.393Z,0.00
2018-01-08T06:47:06.411Z,0.00
2018-01-08T06:48:06.357Z,0.00
2018-01-08T06:49:06.339Z,0.00
2018-01-08T06:50:06.349Z,0.00
2018-01-08T06:51:06.320Z,0.00
2018-01-08T06:52:06.304Z,0.00
2018-01-08T06:53:06.270Z,0.00
2018-01-08T06:54:06.230Z,0.00
2018-01-08T06:55:06.223Z,0.00
2018-01-08T06:56:06.189Z,0.00
2018-01-08T06:57:06.173Z,0.00
2018-01-08T06:58:06.149Z,0.00
2018-01-08T06:59:06.160Z,0.00
2018-01-08T07:00:06.110Z,0.00
2018-01-08T07:01:06.118Z,0.00
2018-01-08T07:02:06.100Z,0.00
2018-01-08T07:03:06.082Z,0.00
2018-01-08T07:04:06.028Z,0.00
2018-01-08T07:05:06.023Z,0.00
2018-01-08T07:06:06.019Z,0.00
2018-01-08T07:07:05.966Z,0.00
2018-01-08T07:08:05.977Z,0.00
2018-01-08T07:09:05.954Z,0.00
2018-01-08T07:10:05.919Z,0.00
2018-01-08T07:11:05.880Z,0.00
2018-01-08T07:12:05.895Z,0.00
2018-01-08T07:13:05.837Z,0.00
2018-01-08T07:14:05.820Z,0.00
2018-01-08T07:15:05.806Z,0.00
2018-01-08T07:16:05.778Z,0.00
2018-01-08T07:17:05.791Z,0.00
2018-01-08T07:18:05.740Z,0.00
2018-01-08T07:19:05.749Z,0.00
2018-01-08T07:20:05.728Z,0.00
2018-01-08T07:21:05.711Z,0.00
2018-01-08T07:22:05.690Z,0.00
2018-01-08T07:23:05.633Z,0.00
2018-01-08T07:24:05.635Z,0.00
2018-01-08T07:25:05.610Z,0.00
2018-01-08T07:26:05.597Z,0.00
2018-01-08T07:27:05.555Z,0.00
2018-01-08T07:28:05.533Z,0.00
2018-01-08T07:29:05.527Z,0.00
2018-01-08T07:30:05.491Z,0.00
2018-01-08T07:31:05.474Z,0.00
2018-01-08T07:32:05.492Z,0.00
2018-01-08T07:33:05.438Z,0.00
2018-01-08T07:34:05.430Z,0.00
2018-01-08T07:35:05.429Z,0.00
2018-01-08T07:36:05.373Z,0.00
2018-01-08T07:37:05.370Z,0.00
2018-01-08T07:38:05.363Z,0.00
2018-01-08T07:39:05.346Z,0.00
2018-01-08T07:40:05.305Z,0.00
2018-01-08T07:41:05.270Z,0.00
2018-01-08T07:42:05.248Z,0.00
2018-01-08T07:43:05.263Z,0.00
2018-01-08T07:44:05.249Z,0.00
2018-01-08T07:45:05.189Z,0.00
2018-01-08T07:46:05.170Z,0.00
2018-01-08T07:47:05.186Z,0.00
2018-01-08T07:48:05.159Z,0.00
2018-01-08T07:49:05.114Z,0.00
2018-01-08T07:50:05.086Z,0.00
2018-01-08T07:51:05.100Z,0.00
2018-01-08T07:52:05.081Z,0.00
2018-01-08T07:53:05.025Z,0.00
2018-01-08T07:54:05.005Z,0.00
2018-01-08T07:55:04.985Z,0.00
2018-01-08T07:56:04.960Z,0.00
2018-01-08T07:57:04.962Z,0.00
2018-01-08T07:58:04.940Z,0.00
2018-01-08T07:59:04.919Z,0.00
2018-01-08T08:00:04.914Z,0.00
2018-01-08T08:01:04.876Z,0.00
2018-01-08T08:02:04.876Z,0.00
2018-01-08T08:03:04.856Z,0.00
2018-01-08T08:04:04.808Z,0.00
2018-01-08T08:05:04.798Z,0.00
2018-01-08T08:06:04.766Z,0.00
2018-01-08T08:07:04.740Z,0.00
2018-01-08T08:08:04.733Z,0.00
2018-01-08T08:09:04.702Z,0.00
2018-01-08T08:10:04.682Z,0.00
2018-01-08T08:11:04.659Z,0.00
2018-01-08T08:12:04.672Z,0.00
2018-01-08T08:13:04.612Z,0.00
2018-01-08T08:14:04.642Z,0.00
2018-01-08T08:15:04.583Z,0.00
2018-01-08T08:16:04.555Z,0.00
2018-01-08T08:17:04.549Z,0.00
2018-01-08T08:18:04.532Z,0.00
2018-01-08T08:19:04.529Z,0.00
2018-01-08T08:20:04.497Z,0.00
2018-01-08T08:21:04.454Z,0.00
2018-01-08T08:22:04.431Z,0.00
2018-01-08T08:23:04.452Z,0.00
2018-01-08T08:24:04.960Z,0.00
2018-01-08T08:25:04.406Z,0.00
2018-01-08T08:26:04.384Z,0.00
2018-01-08T08:27:04.363Z,0.00
2018-01-08T08:28:04.310Z,0.00
2018-01-08T08:29:04.328Z,0.00
2018-01-08T08:30:04.280Z,0.00
2018-01-08T08:31:04.270Z,0.00
2018-01-08T08:32:04.263Z,0.00
2018-01-08T08:33:04.208Z,5.63
2018-01-08T08:34:04.186Z,5.63
2018-01-08T08:35:04.171Z,5.63
2018-01-08T08:36:04.167Z,5.63
2018-01-08T08:37:04.158Z,5.63
2018-01-08T08:38:04.101Z,5.63
2018-01-08T08:39:04.080Z,11.25
2018-01-08T08:40:04.098Z,11.25
2018-01-08T08:41:04.072Z,11.25
2018-01-08T08:42:04.019Z,11.25
2018-01-08T08:43:03.998Z,16.88
2018-01-08T08:44:03.974Z,16.88
2018-01-08T08:45:03.995Z,16.88
2018-01-08T08:46:03.970Z,16.88
2018-01-08T08:47:03.962Z,22.50
2018-01-08T08:48:03.929Z,22.50
2018-01-08T08:49:03.879Z,22.50
2018-01-08T08:50:03.890Z,28.13
2018-01-08T08:51:03.853Z,28.13
2018-01-08T08:52:03.815Z,28.13
2018-01-08T08:53:03.828Z,33.75
2018-01-08T08:54:03.774Z,33.75
2018-01-08T08:55:03.789Z,33.75
2018-01-08T08:56:03.734Z,33.75
2018-01-08T08:57:03.729Z,39.38
2018-01-08T08:58:03.725Z,39.38
2018-01-08T08:59:03.704Z,39.38
2018-01-08T09:00:03.667Z,39.38
2018-01-08T09:01:03.658Z,39.38
2018-01-08T09:02:03.641Z,39.38
2018-01-08T09:03:03.589Z,39.38
2018-01-08T09:04:03.600Z,45.00
2018-01-08T09:05:03.580Z,45.00
2018-01-08T09:06:03.566Z,56.25
2018-01-08T09:07:03.505Z,61.88
2018-01-08T09:08:03.522Z,67.50
2018-01-08T09:09:03.468Z,67.50
2018-01-08T09:10:03.476Z,67.50
2018-01-08T09:12:47.271Z,84.38
2018-01-08T09:13:47.192Z,90.00
2018-01-08T09:14:47.157Z,90.00
2018-01-08T09:15:47.172Z,90.00
2018-01-08T09:16:47.155Z,90.00
2018-01-08T09:17:47.132Z,84.38
2018-01-08T09:18:47.117Z,90.00
2018-01-08T09:19:47.087Z,95.63
2018-01-08T09:20:47.029Z,95.63
2018-01-08T09:21:47.013Z,95.63
2018-01-08T09:22:47.029Z,95.63
2018-01-08T09:23:47.009Z,101.25
2018-01-08T09:24:46.986Z,106.88
2018-01-08T09:25:46.935Z,112.50
2018-01-08T09:26:46.942Z,123.75
2018-01-08T09:27:46.910Z,135.00
2018-01-08T09:28:46.869Z,140.63
2018-01-08T09:29:46.884Z,135.00
2018-01-08T09:30:46.866Z,135.00
2018-01-08T09:31:46.814Z,129.38
2018-01-08T09:32:46.818Z,129.38
2018-01-08T09:33:46.774Z,129.38
2018-01-08T09:34:46.746Z,135.00
2018-01-08T09:35:46.763Z,140.63
2018-01-08T09:36:46.740Z,157.50
2018-01-08T09:37:46.700Z,163.13
2018-01-08T09:38:46.682Z,163.13
2018-01-08T09:39:46.677Z,168.75
2018-01-08T09:40:46.624Z,180.00
2018-01-08T09:41:46.598Z,185.63
2018-01-08T09:42:46.604Z,191.25
2018-01-08T09:43:46.579Z,168.75
2018-01-08T09:44:46.580Z,168.75
2018-01-08T09:45:46.539Z,180.00
2018-01-08T09:46:46.573Z,196.88
2018-01-08T09:47:46.520Z,202.50
2018-01-08T09:48:46.459Z,191.25
2018-01-08T09:49:46.438Z,208.13
2018-01-08T09:50:46.454Z,208.13
2018-01-08T09:51:46.398Z,219.38
2018-01-08T09:52:46.395Z,213.75
2018-01-08T09:53:46.391Z,213.75
2018-01-08T09:54:46.342Z,213.75
2018-01-08T09:55:46.334Z,196.88
2018-01-08T09:56:46.300Z,174.38
2018-01-08T09:57:46.299Z,168.75
2018-01-08T09:58:46.262Z,168.75
2018-01-08T09:59:46.244Z,196.88
2018-01-08T10:00:46.218Z,208.13
2018-01-08T10:01:46.197Z,219.38
2018-01-08T10:02:46.180Z,219.38
2018-01-08T10:03:46.158Z,219.38
2018-01-08T10:04:46.156Z,236.25
2018-01-08T10:05:46.118Z,270.00
2018-01-08T10:06:46.127Z,286.88
2018-01-08T10:07:46.074Z,286.88
2018-01-08T10:08:46.061Z,292.50
2018-01-08T10:09:46.068Z,292.50
2018-01-08T10:10:46.037Z,270.00
2018-01-08T10:11:46.002Z,270.00
2018-01-08T10:12:46.008Z,315.00
2018-01-08T10:13:45.990Z,331.88
2018-01-08T10:14:45.955Z,320.63
2018-01-08T10:15:45.916Z,286.88
2018-01-08T10:16:45.894Z,258.75
2018-01-08T10:17:45.872Z,253.13
2018-01-08T10:18:45.859Z,236.25
2018-01-08T10:19:45.856Z,202.50
2018-01-08T10:20:45.851Z,185.63
2018-01-08T10:21:45.801Z,157.50
2018-01-08T10:22:45.778Z,157.50
2018-01-08T10:23:45.757Z,163.13
2018-01-08T10:24:45.763Z,168.75
2018-01-08T10:25:45.752Z,180.00
2018-01-08T10:26:45.731Z,202.50
2018-01-08T10:27:45.678Z,208.13
2018-01-08T10:28:45.694Z,185.63
2018-01-08T10:29:45.646Z,174.38
2018-01-08T10:30:45.614Z,191.25
2018-01-08T10:31:45.627Z,253.13
2018-01-08T10:32:45.611Z,320.63
2018-01-08T10:33:45.590Z,360.00
2018-01-08T10:34:45.538Z,388.13
2018-01-08T10:35:45.518Z,388.13
2018-01-08T10:36:45.534Z,360.00
2018-01-08T10:37:45.510Z,337.50
2018-01-08T10:38:45.491Z,309.38
2018-01-08T10:39:45.436Z,281.25
2018-01-08T10:40:45.448Z,236.25
2018-01-08T10:41:45.397Z,196.88
2018-01-08T10:42:45.410Z,185.63
2018-01-08T10:43:45.356Z,180.00
2018-01-08T10:44:45.333Z,191.25
2018-01-08T10:45:45.309Z,213.75
2018-01-08T10:46:45.298Z,230.63
2018-01-08T10:47:45.276Z,253.13
2018-01-08T10:48:45.260Z,275.63
2018-01-08T10:49:45.238Z,275.63
2018-01-08T10:50:45.224Z,258.75
2018-01-08T10:51:45.230Z,264.38
2018-01-08T10:52:45.213Z,292.50
2018-01-08T10:53:45.156Z,286.88
2018-01-08T10:54:45.172Z,292.50
2018-01-08T10:55:45.139Z,298.13
2018-01-08T10:56:45.129Z,286.88
2018-01-08T10:57:45.114Z,331.88
2018-01-08T10:58:45.067Z,410.63
2018-01-08T10:59:45.041Z,450.00
2018-01-08T11:00:45.032Z,478.13
2018-01-08T11:01:45.035Z,511.88
2018-01-08T11:02:44.982Z,500.63
2018-01-08T11:03:44.973Z,495.00
2018-01-08T11:04:44.969Z,523.13
2018-01-08T11:05:44.936Z,483.75
2018-01-08T11:06:44.944Z,438.75
2018-01-08T11:07:44.903Z,461.25
2018-01-08T11:08:44.892Z,573.75
2018-01-08T11:09:44.842Z,646.88
2018-01-08T11:10:44.855Z,686.25
2018-01-08T11:11:44.802Z,691.88
2018-01-08T11:12:44.787Z,646.88
2018-01-08T11:13:44.792Z,613.13
2018-01-08T11:14:44.777Z,596.25
2018-01-08T11:15:44.754Z,635.63
2018-01-08T11:16:44.737Z,652.50
2018-01-08T11:17:44.718Z,646.88
2018-01-08T11:18:44.695Z,630.00
2018-01-08T11:19:44.680Z,601.88
2018-01-08T11:20:44.620Z,573.75
2018-01-08T11:21:44.621Z,528.75
2018-01-08T11:22:44.583Z,478.13
2018-01-08T11:23:44.562Z,461.25
2018-01-08T11:24:44.550Z,450.00
2018-01-08T11:25:44.525Z,405.00
2018-01-08T11:26:44.513Z,393.75
2018-01-08T11:27:44.491Z,427.50
2018-01-08T11:28:44.504Z,450.00
2018-01-08T11:29:44.482Z,444.38
2018-01-08T11:30:44.434Z,461.25
2018-01-08T11:31:44.446Z,495.00
2018-01-08T11:32:44.425Z,495.00
2018-01-08T11:33:44.372Z,450.00
2018-01-08T11:34:44.356Z,354.38
2018-01-08T11:35:44.336Z,275.63
2018-01-08T11:36:44.331Z,236.25
2018-01-08T11:37:44.296Z,236.25
2018-01-08T11:38:44.310Z,253.13
2018-01-08T11:39:44.292Z,270.00
2018-01-08T11:40:44.270Z,286.88
2018-01-08T11:41:44.254Z,303.75
2018-01-08T11:42:44.231Z,348.75
2018-01-08T11:43:44.183Z,382.50
2018-01-08T11:44:44.156Z,388.13
2018-01-08T11:45:44.160Z,410.63
2018-01-08T11:46:44.132Z,455.63
2018-01-08T11:47:44.133Z,500.63
2018-01-08T11:48:44.118Z,528.75
2018-01-08T11:49:44.060Z,551.25
2018-01-08T11:50:44.071Z,568.13
2018-01-08T11:51:44.052Z,573.75
2018-01-08T11:52:44.000Z,585.00
2018-01-08T11:53:44.016Z,596.25
2018-01-08T11:54:43.984Z,613.13
2018-01-08T11:55:43.944Z,635.63
2018-01-08T11:56:43.923Z,635.63
2018-01-08T11:57:43.905Z,624.38
2018-01-08T11:58:43.899Z,596.25
2018-01-08T11:59:43.871Z,573.75
2018-01-08T12:00:43.846Z,556.88
2018-01-08T12:01:43.840Z,556.88
2018-01-08T12:02:43.807Z,545.63
2018-01-08T12:03:43.789Z,551.25
2018-01-08T12:04:43.766Z,562.50
2018-01-08T12:05:43.747Z,551.25
2018-01-08T12:06:43.736Z,545.63
2018-01-08T12:07:43.727Z,517.50
2018-01-08T12:08:43.684Z,500.63
2018-01-08T12:09:43.672Z,495.00
2018-01-08T12:10:43.650Z,495.00
2018-01-08T12:11:43.634Z,523.13
2018-01-08T12:12:43.624Z,551.25
2018-01-08T12:13:43.616Z,607.50
2018-01-08T12:14:43.599Z,691.88
2018-01-08T12:15:43.553Z,776.25
2018-01-08T12:16:43.536Z,866.25
2018-01-08T12:17:43.542Z,967.50
2018-01-08T12:18:43.529Z,1046.25
2018-01-08T12:19:43.479Z,1130.63
2018-01-08T12:20:43.460Z,1198.13
2018-01-08T12:22:16.649Z,1248.75
2018-01-08T12:22:43.421Z,1305.00
2018-01-08T12:23:43.434Z,1333.13
2018-01-08T12:24:43.413Z,1333.13
2018-01-08T12:25:43.370Z,1299.38
2018-01-08T12:26:43.347Z,1276.88
2018-01-08T12:27:43.361Z,1288.13
2018-01-08T12:28:43.310Z,1282.50
2018-01-08T12:29:43.297Z,1260.00
2018-01-08T12:30:43.306Z,1265.63
2018-01-08T12:31:43.254Z,1293.75
2018-01-08T12:32:43.274Z,1288.13
2018-01-08T12:33:43.218Z,1226.25
2018-01-08T12:34:43.201Z,1147.50
2018-01-08T12:35:43.187Z,1057.50
2018-01-08T12:36:43.198Z,950.63
2018-01-08T12:37:43.149Z,860.63
2018-01-08T12:38:43.133Z,759.38
2018-01-08T12:39:43.134Z,697.50
2018-01-08T12:40:43.131Z,646.88
2018-01-08T12:41:43.079Z,596.25
2018-01-08T12:42:43.071Z,545.63
2018-01-08T12:43:43.077Z,540.00
2018-01-08T12:44:43.062Z,562.50
2018-01-08T12:45:43.011Z,590.63
2018-01-08T12:46:43.566Z,601.88
2018-01-08T12:47:43.007Z,590.63
2018-01-08T12:48:42.958Z,551.25
2018-01-08T12:49:42.939Z,500.63
2018-01-08T12:50:42.932Z,495.00
2018-01-08T12:51:42.908Z,506.25
2018-01-08T12:52:42.889Z,528.75
2018-01-08T12:53:42.905Z,551.25
2018-01-08T12:54:42.865Z,601.88
2018-01-08T12:55:42.868Z,635.63
2018-01-08T12:56:42.812Z,669.38
2018-01-08T12:57:42.830Z,720.00
2018-01-08T12:58:42.782Z,781.88
2018-01-08T12:59:42.779Z,855.00
2018-01-08T13:00:42.760Z,939.38
2018-01-08T13:01:42.726Z,1035.00
2018-01-08T13:02:42.713Z,1119.38